createdAt,value
2019-02-26T00:00:39.628Z,26.90
2019-02-26T00:03:07.764Z,24.10
2019-02-26T00:05:36.648Z,22.40
2019-02-26T00:08:05.175Z,26.70
2019-02-26T00:10:36.313Z,24.53
2019-02-26T00:13:04.247Z,23.87
2019-02-26T00:15:35.525Z,26.90
2019-02-26T00:18:03.059Z,23.67
2019-02-26T00:20:33.782Z,27.57
2019-02-26T00:23:02.617Z,24.27
2019-02-26T00:25:31.995Z,25.57
2019-02-26T00:28:00.528Z,25.50
2019-02-26T00:30:29.011Z,24.30
2019-02-26T00:32:59.638Z,22.73
2019-02-26T00:35:27.840Z,21.67
2019-02-26T00:37:56.511Z,24.27
2019-02-26T00:40:25.146Z,22.43
2019-02-26T00:42:56.567Z,21.77
2019-02-26T00:45:27.013Z,19.57
2019-02-26T00:47:54.231Z,21.43
2019-02-26T00:50:22.764Z,19.33
2019-02-26T00:52:52.348Z,22.13
2019-02-26T00:55:25.207Z,19.60
2019-02-26T00:57:52.052Z,20.37
2019-02-26T01:00:20.512Z,19.13
2019-02-26T01:02:49.067Z,21.40
2019-02-26T01:05:17.697Z,21.37
2019-02-26T01:07:49.355Z,19.37
2019-02-26T01:10:19.339Z,20.00
2019-02-26T01:12:47.161Z,18.37
2019-02-26T01:15:18.015Z,21.23
2019-02-26T01:17:47.092Z,19.47
2019-02-26T01:20:20.111Z,19.13
2019-02-26T01:22:49.327Z,19.60
2019-02-26T01:25:20.368Z,18.97
2019-02-26T01:27:50.416Z,21.23
2019-02-26T01:30:23.449Z,19.70
2019-02-26T01:32:48.602Z,25.07
2019-02-26T01:35:17.090Z,23.10
2019-02-26T01:37:45.622Z,18.87
2019-02-26T01:40:16.418Z,19.13
2019-02-26T01:42:49.802Z,19.67
2019-02-26T01:45:15.419Z,21.63
2019-02-26T01:47:46.198Z,20.57
2019-02-26T01:50:16.027Z,17.50
2019-02-26T01:52:44.554Z,20.60
2019-02-26T01:55:13.302Z,18.10
2019-02-26T01:57:43.438Z,21.90
2019-02-26T02:00:14.020Z,22.20
2019-02-26T02:02:42.703Z,17.00
2019-02-26T02:05:11.392Z,17.93
2019-02-26T02:07:39.948Z,20.40
2019-02-26T02:10:13.979Z,20.10
2019-02-26T02:12:42.603Z,20.50
2019-02-26T02:15:18.252Z,27.13
2019-02-26T02:17:46.376Z,19.83
2019-02-26T02:20:20.780Z,20.57
2019-02-26T02:22:46.665Z,19.70
2019-02-26T02:25:15.267Z,19.23
2019-02-26T02:27:47.641Z,22.00
2019-02-26T02:30:23.312Z,20.07
2019-02-26T02:32:53.619Z,17.87
2019-02-26T02:35:19.725Z,19.47
2019-02-26T02:37:50.801Z,17.00
2019-02-26T02:40:18.737Z,17.67
2019-02-26T02:42:49.270Z,17.83
2019-02-26T02:45:20.693Z,19.83
2019-02-26T02:47:47.651Z,23.10
2019-02-26T02:50:18.364Z,25.07
2019-02-26T02:52:46.484Z,19.10
2019-02-26T02:55:17.219Z,22.73
2019-02-26T02:57:48.656Z,16.47
2019-02-26T03:00:17.143Z,20.53
2019-02-26T03:02:49.368Z,17.73
2019-02-26T03:05:16.032Z,16.47
2019-02-26T03:07:45.995Z,19.40
2019-02-26T03:10:15.477Z,23.17
2019-02-26T03:12:48.677Z,17.60
2019-02-26T03:15:16.379Z,21.30
2019-02-26T03:17:45.275Z,19.17
2019-02-26T03:20:14.808Z,19.10
2019-02-26T03:22:46.620Z,22.10
2019-02-26T03:25:21.117Z,16.53
2019-02-26T03:27:48.037Z,20.07
2019-02-26T03:30:32.162Z,16.70
2019-02-26T03:32:58.046Z,19.20
2019-02-26T03:35:23.784Z,15.97
2019-02-26T03:37:57.253Z,17.00
2019-02-26T03:40:24.126Z,21.77
2019-02-26T03:42:52.896Z,23.07
2019-02-26T03:45:24.721Z,15.87
2019-02-26T03:47:51.700Z,13.53
2019-02-26T03:50:20.311Z,13.47
2019-02-26T03:52:48.835Z,15.47
2019-02-26T03:55:18.791Z,20.47
2019-02-26T03:57:50.483Z,16.33
2019-02-26T04:00:19.859Z,15.93
2019-02-26T04:02:51.572Z,17.83
2019-02-26T04:05:19.580Z,13.83
2019-02-26T04:07:49.820Z,15.10
2019-02-26T04:10:18.441Z,15.00
2019-02-26T04:12:48.842Z,14.57
2019-02-26T04:15:18.300Z,19.93
2019-02-26T04:17:47.342Z,15.17
2019-02-26T04:20:16.825Z,18.10
2019-02-26T04:22:48.975Z,17.80
2019-02-26T04:25:30.618Z,16.33
2019-02-26T04:28:20.660Z,19.37
2019-02-26T04:30:57.493Z,20.27
2019-02-26T04:33:49.072Z,24.20
2019-02-26T04:36:23.397Z,21.67
2019-02-26T04:39:01.392Z,24.73
2019-02-26T04:41:49.771Z,19.87
2019-02-26T04:44:47.662Z,16.67
2019-02-26T04:47:18.409Z,19.30
2019-02-26T04:49:47.195Z,18.37
2019-02-26T04:52:17.343Z,19.00
2019-02-26T04:54:46.078Z,20.40
2019-02-26T04:57:14.694Z,26.93
2019-02-26T04:59:43.827Z,17.43
2019-02-26T05:02:12.756Z,15.90
2019-02-26T05:04:42.118Z,19.20
2019-02-26T05:07:13.463Z,15.70
2019-02-26T05:09:41.207Z,13.20
2019-02-26T05:12:09.737Z,15.30
2019-02-26T05:14:38.297Z,16.73
2019-02-26T05:17:06.903Z,16.40
2019-02-26T05:19:36.515Z,15.13
2019-02-26T05:22:07.048Z,12.13
2019-02-26T05:24:37.954Z,17.30
2019-02-26T05:27:21.402Z,14.10
2019-02-26T05:29:49.057Z,19.73
2019-02-26T05:32:17.412Z,16.30
2019-02-26T05:34:50.165Z,13.73
2019-02-26T05:37:16.153Z,14.40
2019-02-26T05:39:46.835Z,19.40
2019-02-26T05:42:15.222Z,14.93
2019-02-26T05:44:43.753Z,15.20
2019-02-26T05:47:13.172Z,18.60
2019-02-26T05:49:45.301Z,16.37
2019-02-26T05:52:13.044Z,20.17
2019-02-26T05:54:41.575Z,21.40
2019-02-26T05:57:25.467Z,15.77
2019-02-26T05:59:41.894Z,18.30
2019-02-26T06:02:13.206Z,14.27
2019-02-26T06:04:41.997Z,12.30
2019-02-26T06:07:11.052Z,15.97
2019-02-26T06:09:39.900Z,17.60
2019-02-26T06:12:08.436Z,16.40
2019-02-26T06:14:39.220Z,20.33
2019-02-26T06:17:07.746Z,20.00
2019-02-26T06:19:48.368Z,17.27
2019-02-26T06:22:18.126Z,24.13
2019-02-26T06:24:47.083Z,21.97
2019-02-26T06:27:18.686Z,19.13
2019-02-26T06:29:45.830Z,17.63
2019-02-26T06:32:17.793Z,18.63
2019-02-26T06:34:46.396Z,22.33
2019-02-26T06:37:24.757Z,17.83
2019-02-26T06:39:57.044Z,19.13
2019-02-26T06:42:23.836Z,17.40
2019-02-26T06:44:52.296Z,24.40
2019-02-26T06:47:23.368Z,18.00
2019-02-26T06:49:52.695Z,23.47
2019-02-26T06:52:21.415Z,16.93
2019-02-26T06:54:54.769Z,18.70
2019-02-26T06:57:20.088Z,19.27
2019-02-26T06:59:50.836Z,18.30
2019-02-26T07:02:18.899Z,25.27
2019-02-26T07:04:47.403Z,19.87
2019-02-26T07:07:15.995Z,18.90
2019-02-26T07:09:44.555Z,22.43
2019-02-26T07:12:14.575Z,23.70
2019-02-26T07:14:43.632Z,20.90
2019-02-26T07:17:12.159Z,17.63
2019-02-26T07:19:40.624Z,23.17
2019-02-26T07:22:11.131Z,19.00
2019-02-26T07:24:41.184Z,23.27
2019-02-26T07:27:11.606Z,17.93
2019-02-26T07:29:41.928Z,21.47
2019-02-26T07:32:12.244Z,23.63
2019-02-26T07:34:42.155Z,22.33
2019-02-26T07:37:11.686Z,33.00
2019-02-26T07:39:42.046Z,24.20
2019-02-26T07:42:11.492Z,20.93
2019-02-26T07:44:41.366Z,25.30
2019-02-26T07:47:11.288Z,21.77
2019-02-26T07:49:39.863Z,20.47
2019-02-26T07:52:08.793Z,23.10
2019-02-26T07:54:39.497Z,23.33
2019-02-26T07:57:07.576Z,24.17
2019-02-26T07:59:37.016Z,20.77
2019-02-26T08:02:08.731Z,24.13
2019-02-26T08:04:38.922Z,22.00
2019-02-26T08:07:07.742Z,22.63
2019-02-26T08:09:36.301Z,22.70
2019-02-26T08:12:06.597Z,28.37
2019-02-26T08:14:35.052Z,30.93
2019-02-26T08:17:04.383Z,20.80
2019-02-26T08:19:34.953Z,22.50
2019-02-26T08:22:04.303Z,21.30
2019-02-26T08:24:32.864Z,18.70
2019-02-26T08:27:03.267Z,17.30
2019-02-26T08:29:33.707Z,22.53
2019-02-26T08:32:02.139Z,22.13
2019-02-26T08:34:30.696Z,24.90
2019-02-26T08:36:59.151Z,23.50
2019-02-26T08:39:27.635Z,17.00
2019-02-26T08:42:09.332Z,18.43
2019-02-26T08:44:37.959Z,17.07
2019-02-26T08:47:10.911Z,20.97
2019-02-26T08:49:38.347Z,24.37
2019-02-26T08:52:07.172Z,19.67
2019-02-26T08:54:35.879Z,18.93
2019-02-26T08:57:04.664Z,24.53
2019-02-26T08:59:33.124Z,27.33
2019-02-26T09:02:01.608Z,18.50
2019-02-26T09:04:30.564Z,21.07
2019-02-26T09:07:01.721Z,17.83
2019-02-26T09:09:31.039Z,24.00
2019-02-26T09:12:01.187Z,21.30
2019-02-26T09:14:34.516Z,23.73
2019-02-26T09:17:02.070Z,18.60
2019-02-26T09:19:32.870Z,19.07
2019-02-26T09:22:01.231Z,20.93
2019-02-26T09:24:29.716Z,17.07
2019-02-26T09:26:59.925Z,18.27
2019-02-26T09:29:28.800Z,17.00
2019-02-26T09:31:57.260Z,18.50
2019-02-26T09:34:26.695Z,18.40
2019-02-26T09:36:58.113Z,18.10
2019-02-26T09:39:27.541Z,13.23
2019-02-26T09:41:58.843Z,16.10
2019-02-26T09:44:28.772Z,15.37
2019-02-26T09:46:58.347Z,17.90
2019-02-26T09:49:28.495Z,15.50
2019-02-26T09:51:59.065Z,12.93
2019-02-26T09:54:27.660Z,12.73
2019-02-26T09:56:56.156Z,14.67
2019-02-26T09:59:26.438Z,16.50
2019-02-26T10:01:56.585Z,12.40
2019-02-26T10:04:26.517Z,12.63
2019-02-26T10:06:55.967Z,11.73
2019-02-26T10:09:24.504Z,13.73
2019-02-26T10:11:52.995Z,11.40
2019-02-26T10:14:21.602Z,10.70
2019-02-26T10:16:52.398Z,13.67
2019-02-26T10:19:20.380Z,11.57
2019-02-26T10:21:48.844Z,10.63
2019-02-26T10:24:18.413Z,12.37
2019-02-26T10:26:47.519Z,10.23
2019-02-26T10:29:16.004Z,9.63
2019-02-26T10:31:44.784Z,9.97
2019-02-26T10:34:15.662Z,10.13
2019-02-26T10:36:46.479Z,11.80
2019-02-26T10:39:15.674Z,10.10
2019-02-26T10:41:46.602Z,13.60
2019-02-26T10:44:14.789Z,10.87
2019-02-26T10:46:44.502Z,11.03
2019-02-26T10:49:13.088Z,10.00
2019-02-26T10:51:42.666Z,9.40
2019-02-26T10:54:13.351Z,8.60
2019-02-26T10:56:42.611Z,8.63
2019-02-26T10:59:14.907Z,8.50
2019-02-26T11:01:42.459Z,9.47
2019-02-26T11:04:11.060Z,7.93
2019-02-26T11:06:41.834Z,8.33
2019-02-26T11:09:15.604Z,9.70
2019-02-26T11:11:42.918Z,9.20
2019-02-26T11:14:15.992Z,10.70
2019-02-26T11:16:41.720Z,9.30
2019-02-26T11:19:12.181Z,10.50
2019-02-26T11:21:40.846Z,10.40
2019-02-26T11:24:11.198Z,11.17
2019-02-26T11:26:40.963Z,11.20
2019-02-26T11:29:10.168Z,9.00
2019-02-26T11:31:39.625Z,11.23
2019-02-26T11:34:11.029Z,8.40
2019-02-26T11:36:40.886Z,10.97
2019-02-26T11:39:11.852Z,9.97
2019-02-26T11:41:39.510Z,7.20
2019-02-26T11:44:12.471Z,7.00
2019-02-26T11:46:38.657Z,5.83
2019-02-26T11:49:09.242Z,6.07
2019-02-26T11:51:41.672Z,7.50
2019-02-26T11:54:08.242Z,10.40
2019-02-26T11:56:42.047Z,8.70
2019-02-26T11:59:09.629Z,11.30
2019-02-26T12:01:39.511Z,7.40
2019-02-26T12:04:11.389Z,8.20
2019-02-26T12:06:39.104Z,7.47
2019-02-26T12:09:10.409Z,6.37
2019-02-26T12:11:38.145Z,5.73
2019-02-26T12:14:08.288Z,6.17
2019-02-26T12:16:36.956Z,5.23
2019-02-26T12:19:06.474Z,5.23
2019-02-26T12:21:37.031Z,6.30
2019-02-26T12:24:08.890Z,7.70
2019-02-26T12:26:36.132Z,7.97
2019-02-26T12:29:04.692Z,8.03
2019-02-26T12:31:34.481Z,10.30
2019-02-26T12:34:03.369Z,9.40
2019-02-26T12:36:33.651Z,9.03
2019-02-26T12:39:02.800Z,9.03
2019-02-26T12:41:33.246Z,9.07
2019-02-26T12:44:04.090Z,13.73
2019-02-26T12:46:33.773Z,8.40
2019-02-26T12:49:02.985Z,8.17
2019-02-26T12:51:35.246Z,8.17
2019-02-26T12:54:03.504Z,10.37
2019-02-26T12:56:34.015Z,11.40
2019-02-26T12:59:02.739Z,6.60
2019-02-26T13:01:33.297Z,11.93
2019-02-26T13:04:01.820Z,9.80
2019-02-26T13:06:30.305Z,8.17
2019-02-26T13:08:58.842Z,7.57
2019-02-26T13:11:27.540Z,8.83
2019-02-26T13:13:56.071Z,8.30
2019-02-26T13:16:24.948Z,8.43
2019-02-26T13:18:58.592Z,8.73
2019-02-26T13:21:23.686Z,7.80
2019-02-26T13:23:52.313Z,11.80
2019-02-26T13:26:22.503Z,9.23
2019-02-26T13:28:52.794Z,9.40
2019-02-26T13:31:22.522Z,9.20
2019-02-26T13:33:51.526Z,9.23
2019-02-26T13:36:20.992Z,9.80
2019-02-26T13:38:49.553Z,9.27
2019-02-26T13:41:29.504Z,8.77
2019-02-26T13:43:48.624Z,9.80
2019-02-26T13:46:17.584Z,10.70
2019-02-26T13:48:46.139Z,11.10
2019-02-26T13:51:14.947Z,11.97
2019-02-26T13:53:43.508Z,9.27
2019-02-26T13:56:12.043Z,11.33
2019-02-26T13:58:40.712Z,10.17
2019-02-26T14:01:09.249Z,12.33
2019-02-26T14:03:37.783Z,11.07
2019-02-26T14:06:06.399Z,8.93
2019-02-26T14:08:35.008Z,10.37
2019-02-26T14:11:03.705Z,11.83
2019-02-26T14:13:32.231Z,11.30
2019-02-26T14:16:00.800Z,10.77
2019-02-26T14:18:29.328Z,8.10
2019-02-26T14:20:57.885Z,7.53
2019-02-26T14:23:26.616Z,8.37
2019-02-26T14:25:55.179Z,10.40
2019-02-26T14:28:23.717Z,11.53
2019-02-26T14:30:52.247Z,9.60
2019-02-26T14:33:20.731Z,9.27
2019-02-26T14:35:49.760Z,9.17
2019-02-26T14:38:18.251Z,10.03
2019-02-26T14:40:47.136Z,10.03
2019-02-26T14:43:15.700Z,9.60
2019-02-26T14:45:44.516Z,10.27
2019-02-26T14:48:13.882Z,9.10
2019-02-26T14:50:42.435Z,9.77
2019-02-26T14:53:11.001Z,10.27
2019-02-26T14:55:39.531Z,9.70
2019-02-26T14:58:08.096Z,9.20
2019-02-26T15:00:36.701Z,9.87
2019-02-26T15:03:05.971Z,13.60
2019-02-26T15:05:34.532Z,11.47
2019-02-26T15:08:03.074Z,11.50
2019-02-26T15:10:31.695Z,9.20
2019-02-26T15:13:00.227Z,8.37
2019-02-26T15:15:28.859Z,10.17
2019-02-26T15:17:57.393Z,8.63
2019-02-26T15:20:27.093Z,8.90
2019-02-26T15:22:55.940Z,10.50
2019-02-26T15:25:28.732Z,8.77
2019-02-26T15:28:04.558Z,10.17
2019-02-26T15:30:27.614Z,10.90
2019-02-26T15:32:56.214Z,11.57
2019-02-26T15:35:25.076Z,10.43
2019-02-26T15:37:53.620Z,9.73
2019-02-26T15:40:23.087Z,10.33
2019-02-26T15:42:53.063Z,13.20
2019-02-26T15:45:29.961Z,15.20
2019-02-26T15:47:58.737Z,10.83
2019-02-26T15:50:27.372Z,11.40
2019-02-26T15:52:55.916Z,21.13
2019-02-26T15:55:31.276Z,12.30
2019-02-26T15:58:02.990Z,13.67
2019-02-26T16:00:30.164Z,17.90
2019-02-26T16:02:59.488Z,13.33
2019-02-26T16:05:37.562Z,12.90
2019-02-26T16:08:06.500Z,19.63
2019-02-26T16:10:35.144Z,14.60
2019-02-26T16:13:06.651Z,13.97
2019-02-26T16:15:36.729Z,15.83
2019-02-26T16:18:05.636Z,13.33
2019-02-26T16:20:34.524Z,14.73
2019-02-26T16:23:03.021Z,13.10
2019-02-26T16:25:31.901Z,13.13
2019-02-26T16:28:00.459Z,14.60
2019-02-26T16:30:29.539Z,13.47
2019-02-26T16:32:58.166Z,14.73
2019-02-26T16:35:27.052Z,14.77
2019-02-26T16:37:55.617Z,17.80
2019-02-26T16:40:24.153Z,11.87
2019-02-26T16:42:52.861Z,11.97
2019-02-26T16:45:26.103Z,11.27
2019-02-26T16:47:54.994Z,16.23
2019-02-26T16:50:24.604Z,14.13
2019-02-26T16:52:53.275Z,14.73
2019-02-26T16:55:22.082Z,11.80
2019-02-26T16:57:50.968Z,20.17
2019-02-26T17:00:23.842Z,17.57
2019-02-26T17:02:52.545Z,21.13
2019-02-26T17:05:21.428Z,14.47
2019-02-26T17:07:50.032Z,14.67
2019-02-26T17:10:20.681Z,16.30
2019-02-26T17:12:53.611Z,14.10
2019-02-26T17:15:36.468Z,14.73
2019-02-26T17:18:09.335Z,15.63
2019-02-26T17:20:35.867Z,24.60
2019-02-26T17:23:04.436Z,16.10
2019-02-26T17:25:32.972Z,19.73
2019-02-26T17:28:01.543Z,18.93
2019-02-26T17:30:30.084Z,21.60
2019-02-26T17:32:58.575Z,17.97
2019-02-26T17:35:29.542Z,18.80
2019-02-26T17:37:57.426Z,32.40
2019-02-26T17:40:27.211Z,72.03
2019-02-26T17:42:55.841Z,24.43
2019-02-26T17:45:32.275Z,22.83
2019-02-26T17:48:00.768Z,31.97
2019-02-26T17:50:32.496Z,27.03
2019-02-26T17:53:01.036Z,21.30
2019-02-26T17:55:29.673Z,17.50
2019-02-26T17:57:58.212Z,17.93
2019-02-26T18:00:28.872Z,18.03
2019-02-26T18:02:57.341Z,14.13
2019-02-26T18:05:25.971Z,19.77
2019-02-26T18:07:54.507Z,19.50
2019-02-26T18:10:25.213Z,13.40
2019-02-26T18:12:54.079Z,18.10
2019-02-26T18:15:22.885Z,20.23
2019-02-26T18:17:51.492Z,18.97
2019-02-26T18:20:21.497Z,21.07
2019-02-26T18:22:49.959Z,18.73
2019-02-26T18:25:21.168Z,18.93
2019-02-26T18:27:49.695Z,22.53
2019-02-26T18:30:22.782Z,24.77
2019-02-26T18:32:55.587Z,23.90
2019-02-26T18:35:21.604Z,20.47
2019-02-26T18:37:50.062Z,22.47
2019-02-26T18:40:19.221Z,26.10
2019-02-26T18:42:48.419Z,23.23
2019-02-26T18:45:29.937Z,28.43
2019-02-26T18:47:58.556Z,27.73
2019-02-26T18:50:29.301Z,27.70
2019-02-26T18:52:58.454Z,22.30
2019-02-26T18:55:28.773Z,23.93
2019-02-26T18:57:57.929Z,24.23
2019-02-26T19:00:32.019Z,21.93
2019-02-26T19:03:00.576Z,22.27
2019-02-26T19:05:29.184Z,18.40
2019-02-26T19:07:58.015Z,18.70
2019-02-26T19:10:26.724Z,18.13
2019-02-26T19:12:55.359Z,19.30
2019-02-26T19:15:29.153Z,20.97
2019-02-26T19:18:02.287Z,13.20
2019-02-26T19:20:32.720Z,15.70
2019-02-26T19:23:02.081Z,14.03
2019-02-26T19:25:30.904Z,17.60
2019-02-26T19:27:59.468Z,14.47
2019-02-26T19:30:28.584Z,16.20
2019-02-26T19:32:57.220Z,19.10
2019-02-26T19:35:25.683Z,20.57
2019-02-26T19:38:02.048Z,19.13
2019-02-26T19:40:38.688Z,12.03
2019-02-26T19:43:06.378Z,17.47
2019-02-26T19:45:34.919Z,17.73
2019-02-26T19:48:03.519Z,18.83
2019-02-26T19:50:32.084Z,17.20
2019-02-26T19:53:02.479Z,19.00
2019-02-26T19:55:39.801Z,13.87
2019-02-26T19:58:08.804Z,14.60
2019-02-26T20:00:37.272Z,17.10
2019-02-26T20:03:06.258Z,13.73
2019-02-26T20:05:34.974Z,22.63
2019-02-26T20:08:05.378Z,17.43
2019-02-26T20:10:33.759Z,21.50
2019-02-26T20:13:04.037Z,21.43
2019-02-26T20:15:32.436Z,14.33
2019-02-26T20:18:00.896Z,24.03
2019-02-26T20:20:29.533Z,24.37
2019-02-26T20:22:58.080Z,16.13
2019-02-26T20:25:26.663Z,26.23
2019-02-26T20:27:58.068Z,19.00
2019-02-26T20:30:25.647Z,21.13
2019-02-26T20:32:54.112Z,20.60
2019-02-26T20:35:22.672Z,24.17
2019-02-26T20:37:51.475Z,21.10
2019-02-26T20:40:21.671Z,21.57
2019-02-26T20:42:50.136Z,21.63
2019-02-26T20:45:19.564Z,22.43
2019-02-26T20:47:48.185Z,24.03
2019-02-26T20:50:20.091Z,23.23
2019-02-26T20:52:47.341Z,23.87
2019-02-26T20:55:24.112Z,30.67
2019-02-26T20:57:52.652Z,24.03
2019-02-26T21:00:24.879Z,25.30
2019-02-26T21:02:51.771Z,31.23
2019-02-26T21:05:20.236Z,23.00
2019-02-26T21:07:49.644Z,23.10
2019-02-26T21:10:20.507Z,22.60
2019-02-26T21:12:49.145Z,22.67
2019-02-26T21:15:25.728Z,36.07
2019-02-26T21:17:57.857Z,24.57
2019-02-26T21:20:24.596Z,30.77
2019-02-26T21:22:54.850Z,29.70
2019-02-26T21:25:23.748Z,31.00
2019-02-26T21:27:52.260Z,29.07
2019-02-26T21:30:23.195Z,30.83
2019-02-26T21:32:51.657Z,33.70
2019-02-26T21:35:21.191Z,30.27
2019-02-26T21:37:49.891Z,24.87
2019-02-26T21:40:18.556Z,32.33
2019-02-26T21:42:47.095Z,27.03
2019-02-26T21:45:18.848Z,25.37
2019-02-26T21:47:47.383Z,33.83
2019-02-26T21:50:16.483Z,24.63
2019-02-26T21:52:59.256Z,27.27
2019-02-26T21:55:16.073Z,27.03
2019-02-26T21:57:44.612Z,28.57
2019-02-26T22:00:20.153Z,43.27
2019-02-26T22:02:52.079Z,32.87
2019-02-26T22:05:18.852Z,33.37
2019-02-26T22:07:51.909Z,32.87
2019-02-26T22:10:19.172Z,31.53
2019-02-26T22:12:47.803Z,31.43
2019-02-26T22:15:17.372Z,28.10
2019-02-26T22:17:46.071Z,25.13
2019-02-26T22:20:35.373Z,27.03
2019-02-26T22:22:51.737Z,41.80
2019-02-26T22:25:20.784Z,28.93
2019-02-26T22:27:49.272Z,28.50
2019-02-26T22:30:21.555Z,29.93
2019-02-26T22:32:49.063Z,24.33
2019-02-26T22:35:17.598Z,20.77
2019-02-26T22:37:46.138Z,22.90
2019-02-26T22:40:15.168Z,30.23
2019-02-26T22:42:43.907Z,22.30
2019-02-26T22:45:14.033Z,20.90
2019-02-26T22:47:44.157Z,26.80
2019-02-26T22:50:17.537Z,24.07
2019-02-26T22:52:46.367Z,24.80
2019-02-26T22:55:17.196Z,25.07
2019-02-26T22:57:45.928Z,22.50
2019-02-26T23:00:51.035Z,28.80
2019-02-26T23:03:19.908Z,23.70
2019-02-26T23:05:48.368Z,25.60
2019-02-26T23:08:17.488Z,23.00
2019-02-26T23:10:46.119Z,26.03
2019-02-26T23:13:16.594Z,28.53
2019-02-26T23:15:46.054Z,30.83
2019-02-26T23:18:15.278Z,23.70
2019-02-26T23:20:43.947Z,23.90
2019-02-26T23:23:12.580Z,26.07
2019-02-26T23:25:41.883Z,24.10
2019-02-26T23:28:10.616Z,24.57
2019-02-26T23:30:39.911Z,25.70
2019-02-26T23:33:08.636Z,30.50
2019-02-26T23:35:37.945Z,33.77
2019-02-26T23:38:08.373Z,32.37
2019-02-26T23:40:37.064Z,34.03
2019-02-26T23:43:05.692Z,48.53
2019-02-26T23:45:34.695Z,35.80
2019-02-26T23:48:07.662Z,29.43
2019-02-26T23:50:33.435Z,30.53
2019-02-26T23:53:01.892Z,33.07
2019-02-26T23:55:30.383Z,30.73
2019-02-26T23:57:58.847Z,32.53
